Time;durP1;ratioP1;P1;durP2;ratioP2;P2;SDS_P1;SDS_P2;PMS_P1;PMS_P2;Temp;Humidity;BMP_temperature;BMP_pressure;BME280_temperature;BME280_humidity;BME280_pressure;Samples;Min_cycle;Max_cycle;Signal;HPM_P1;HPM_P2
2022/03/01 00:02:20;;;;;;;18.48;10.63;;;3.40;99.90;;;;;;5089370;28;20107;-64
2022/03/01 00:04:46;;;;;;;20.73;10.65;;;3.30;99.90;;;;;;5090137;28;20044;-65
2022/03/01 00:07:12;;;;;;;20.40;11.50;;;3.30;99.90;;;;;;5089798;28;20036;-65
2022/03/01 00:09:37;;;;;;;17.17;10.32;;;3.20;99.90;;;;;;5086938;28;20179;-64
2022/03/01 00:12:03;;;;;;;22.52;11.48;;;3.30;99.90;;;;;;5066624;28;20135;-64
2022/03/01 00:14:29;;;;;;;19.33;10.98;;;3.20;99.90;;;;;;5098783;28;20058;-64
2022/03/01 00:16:55;;;;;;;18.70;10.05;;;3.20;99.90;;;;;;5110309;28;20036;-64
2022/03/01 00:19:21;;;;;;;22.50;11.05;;;3.10;99.90;;;;;;5110122;28;20120;-65
2022/03/01 00:21:47;;;;;;;18.88;10.43;;;3.10;99.90;;;;;;5109254;28;20047;-65
2022/03/01 00:24:12;;;;;;;19.33;10.52;;;3.10;99.90;;;;;;5110281;28;20036;-65
2022/03/01 00:26:38;;;;;;;16.55;10.35;;;3.10;99.90;;;;;;5110210;28;20459;-65
2022/03/01 00:29:04;;;;;;;20.08;10.90;;;3.10;99.90;;;;;;5110126;28;20082;-64
2022/03/01 00:31:30;;;;;;;20.55;11.50;;;3.20;99.90;;;;;;5109603;28;20036;-65
2022/03/01 00:33:56;;;;;;;20.25;11.88;;;3.20;99.90;;;;;;5109227;28;20500;-65
2022/03/01 00:36:21;;;;;;;21.95;11.60;;;3.10;99.90;;;;;;5111562;28;20138;-64
2022/03/01 00:38:47;;;;;;;18.75;10.52;;;3.10;99.90;;;;;;5112190;28;20069;-64
2022/03/01 00:41:13;;;;;;;20.58;10.98;;;3.10;99.90;;;;;;5110094;28;20050;-65
2022/03/01 00:43:38;;;;;;;18.65;10.20;;;3.10;99.90;;;;;;5109225;28;20040;-65
2022/03/01 00:46:04;;;;;;;19.48;10.45;;;3.10;99.90;;;;;;5111946;28;20031;-64
2022/03/01 00:48:29;;;;;;;18.40;10.05;;;3.10;99.90;;;;;;5113838;28;20044;-64
2022/03/01 00:50:55;;;;;;;19.25;10.75;;;3.10;99.90;;;;;;5112266;28;20042;-65
2022/03/01 00:53:21;;;;;;;17.63;9.73;;;3.10;99.90;;;;;;5113045;28;20035;-64
2022/03/01 00:55:46;;;;;;;19.73;10.75;;;3.00;99.90;;;;;;5113757;28;20051;-65
2022/03/01 00:58:12;;;;;;;22.33;11.75;;;2.90;99.90;;;;;;5113516;28;20043;-64
2022/03/01 01:00:38;;;;;;;21.23;10.93;;;2.90;99.90;;;;;;5113755;28;20068;-65
2022/03/01 01:03:03;;;;;;;21.73;10.85;;;2.80;99.90;;;;;;5113650;28;20127;-64
2022/03/01 01:05:29;;;;;;;20.13;11.05;;;2.90;99.90;;;;;;5115075;28;20046;-64
2022/03/01 01:07:55;;;;;;;19.75;10.48;;;2.90;99.90;;;;;;5114252;28;20035;-65
2022/03/01 01:10:21;;;;;;;19.80;10.88;;;2.80;99.90;;;;;;5113602;28;20507;-64
2022/03/01 01:12:47;;;;;;;21.08;10.93;;;2.80;99.90;;;;;;5112858;28;20040;-65
2022/03/01 01:15:15;;;;;;;19.58;10.68;;;2.70;99.90;;;;;;5113320;28;20075;-65
2022/03/01 01:17:40;;;;;;;21.67;10.48;;;2.60;99.90;;;;;;5113417;28;20059;-64
2022/03/01 01:20:08;;;;;;;21.05;11.45;;;2.60;99.90;;;;;;5113501;28;20384;-65
2022/03/01 01:22:39;;;;;;;19.15;11.07;;;2.70;99.90;;;;;;5112957;28;20135;-65
2022/03/01 01:25:16;;;;;;;18.80;10.20;;;2.60;99.90;;;;;;5113381;28;20035;-65
2022/03/01 01:27:44;;;;;;;19.70;10.35;;;2.70;99.90;;;;;;5113298;28;20031;-65
2022/03/01 01:30:13;;;;;;;22.92;12.35;;;2.70;99.90;;;;;;5113177;28;20395;-65
2022/03/01 01:32:39;;;;;;;19.80;11.85;;;2.70;99.90;;;;;;5112097;28;20100;-65
2022/03/01 01:35:06;;;;;;;20.85;10.57;;;2.80;99.90;;;;;;5112832;28;20035;-65
2022/03/01 01:37:32;;;;;;;20.58;11.35;;;2.70;99.90;;;;;;5113287;28;20046;-65
2022/03/01 01:39:57;;;;;;;19.67;11.43;;;2.60;99.90;;;;;;5112993;28;20049;-65
2022/03/01 01:42:23;;;;;;;18.77;10.55;;;2.60;99.90;;;;;;5112116;28;20096;-65
2022/03/01 01:44:49;;;;;;;20.80;11.15;;;2.50;99.90;;;;;;5112662;28;20040;-65
2022/03/01 01:47:14;;;;;;;21.67;11.32;;;2.50;99.90;;;;;;5112778;28;20495;-65
2022/03/01 01:49:40;;;;;;;21.10;11.32;;;2.40;99.90;;;;;;5114616;28;20061;-64
2022/03/01 01:52:06;;;;;;;19.83;11.98;;;2.50;99.90;;;;;;5113695;28;20369;-64
2022/03/01 01:54:32;;;;;;;20.67;11.30;;;2.50;99.90;;;;;;5112862;28;20398;-64
2022/03/01 01:56:57;;;;;;;21.90;11.95;;;2.40;99.90;;;;;;5111518;28;20039;-65
2022/03/01 01:59:23;;;;;;;18.92;11.13;;;2.40;99.90;;;;;;5112703;28;20051;-64
2022/03/01 02:01:49;;;;;;;21.67;11.40;;;2.40;99.90;;;;;;5111713;28;20351;-65
2022/03/01 02:04:14;;;;;;;26.33;12.65;;;2.50;99.90;;;;;;5112425;28;20075;-65
2022/03/01 02:06:54;;;;;;;19.40;11.23;;;2.40;99.90;;;;;;5112551;28;20080;-65
2022/03/01 02:09:20;;;;;;;20.83;11.75;;;2.50;99.90;;;;;;5112556;28;20115;-65
2022/03/01 02:11:45;;;;;;;20.60;11.18;;;2.50;99.90;;;;;;5111507;28;20039;-64
2022/03/01 02:14:11;;;;;;;21.98;10.95;;;2.60;99.90;;;;;;5112224;28;20044;-65
2022/03/01 02:16:38;;;;;;;20.45;11.13;;;2.60;99.90;;;;;;5112301;28;20036;-64
2022/03/01 02:19:05;;;;;;;19.30;10.95;;;2.50;99.90;;;;;;5112312;28;20032;-65
2022/03/01 02:21:31;;;;;;;20.23;11.05;;;2.50;99.90;;;;;;5112022;28;20402;-65
2022/03/01 02:23:57;;;;;;;22.38;11.85;;;2.60;99.90;;;;;;5111581;28;20035;-65
2022/03/01 02:26:23;;;;;;;37.72;12.63;;;2.60;99.90;;;;;;5112463;28;20093;-65
2022/03/01 02:28:48;;;;;;;18.98;10.45;;;2.60;99.90;;;;;;5113401;28;20046;-65
2022/03/01 02:31:14;;;;;;;19.98;11.30;;;2.50;99.90;;;;;;5113299;28;20044;-65
2022/03/01 02:33:39;;;;;;;18.48;11.13;;;2.60;99.90;;;;;;5110995;28;20043;-65
2022/03/01 02:36:05;;;;;;;20.73;11.80;;;2.50;99.90;;;;;;5111953;28;20090;-65
2022/03/01 02:38:30;;;;;;;19.27;11.48;;;2.50;99.90;;;;;;5112060;28;20040;-66
2022/03/01 02:40:56;;;;;;;20.60;11.10;;;2.50;99.90;;;;;;5111968;28;20115;-64
2022/03/01 02:43:22;;;;;;;20.05;11.43;;;2.50;99.90;;;;;;5111030;28;20515;-65
2022/03/01 02:45:47;;;;;;;23.83;11.55;;;2.40;99.90;;;;;;5111803;28;20046;-66
2022/03/01 02:48:13;;;;;;;21.13;11.00;;;2.40;99.90;;;;;;5111529;28;20047;-65
2022/03/01 02:50:38;;;;;;;21.73;12.05;;;2.40;99.90;;;;;;5111812;28;20050;-65
2022/03/01 02:53:06;;;;;;;23.15;12.38;;;2.40;99.90;;;;;;5110860;28;20463;-64
2022/03/01 02:55:31;;;;;;;23.48;12.32;;;2.40;99.90;;;;;;5111339;28;20059;-65
2022/03/01 02:57:57;;;;;;;21.70;12.05;;;2.40;99.90;;;;;;5111379;28;20035;-65
2022/03/01 03:00:22;;;;;;;20.30;11.38;;;2.40;99.90;;;;;;5111654;28;20546;-64
2022/03/01 03:02:48;;;;;;;20.92;11.82;;;2.40;99.90;;;;;;5112288;28;20467;-65
2022/03/01 03:05:13;;;;;;;22.17;10.38;;;2.40;99.90;;;;;;5112569;28;20608;-65
2022/03/01 03:07:40;;;;;;;23.80;11.48;;;2.40;99.90;;;;;;5111116;28;20495;-65
2022/03/01 03:10:07;;;;;;;21.67;11.88;;;2.30;99.90;;;;;;5111120;28;20106;-65
2022/03/01 03:12:32;;;;;;;23.33;11.15;;;2.30;99.90;;;;;;5110293;28;20035;-64
2022/03/01 03:14:58;;;;;;;23.50;12.55;;;2.30;99.90;;;;;;5111065;28;20054;-64
2022/03/01 03:17:23;;;;;;;19.40;11.30;;;2.30;99.90;;;;;;5111040;28;20040;-65
2022/03/01 03:19:49;;;;;;;21.13;12.32;;;2.20;99.90;;;;;;5111244;28;20027;-64
2022/03/01 03:22:14;;;;;;;19.30;10.98;;;2.20;99.90;;;;;;5110386;28;20074;-64
2022/03/01 03:24:40;;;;;;;22.80;12.40;;;2.30;99.90;;;;;;5110944;28;20043;-65
2022/03/01 03:27:06;;;;;;;21.15;12.00;;;2.30;99.90;;;;;;5110840;28;20039;-65
2022/03/01 03:29:31;;;;;;;22.65;12.70;;;2.30;99.90;;;;;;5110956;28;20035;-65
2022/03/01 03:31:57;;;;;;;23.52;13.38;;;2.30;99.90;;;;;;5110030;28;20491;-64
2022/03/01 03:34:23;;;;;;;20.83;11.65;;;2.20;99.90;;;;;;5110766;28;20043;-65
2022/03/01 03:36:49;;;;;;;20.77;11.75;;;2.30;99.90;;;;;;5110629;28;20046;-64
2022/03/01 03:39:15;;;;;;;24.90;11.88;;;2.30;99.90;;;;;;5110677;28;20031;-65
2022/03/01 03:41:41;;;;;;;25.95;12.57;;;2.30;99.90;;;;;;5109994;28;20111;-64
2022/03/01 03:44:07;;;;;;;24.35;11.95;;;2.30;99.90;;;;;;5110705;28;20037;-65
2022/03/01 03:46:32;;;;;;;21.45;11.23;;;2.30;99.90;;;;;;5110598;28;20118;-65
2022/03/01 03:48:58;;;;;;;21.15;12.60;;;2.20;99.90;;;;;;5110535;28;20118;-65
2022/03/01 03:51:25;;;;;;;23.38;12.15;;;2.30;99.90;;;;;;5111339;28;20036;-65
2022/03/01 03:53:51;;;;;;;22.52;11.45;;;2.20;99.90;;;;;;5111469;28;20275;-65
2022/03/01 03:56:17;;;;;;;19.85;11.60;;;2.20;99.90;;;;;;5110804;28;20044;-66
2022/03/01 03:58:43;;;;;;;22.88;12.07;;;2.20;99.90;;;;;;5110558;28;20492;-65
2022/03/01 04:01:09;;;;;;;25.88;13.90;;;2.10;99.90;;;;;;5110447;28;20117;-65
2022/03/01 04:03:34;;;;;;;26.13;11.57;;;2.20;99.90;;;;;;5109596;28;20040;-66
2022/03/01 04:06:00;;;;;;;22.40;12.90;;;2.20;99.90;;;;;;5109882;28;20084;-66
2022/03/01 04:08:26;;;;;;;22.77;12.82;;;2.20;99.90;;;;;;5110048;28;20093;-65
2022/03/01 04:10:51;;;;;;;26.02;13.38;;;2.20;99.90;;;;;;5110144;28;20048;-65
2022/03/01 04:13:17;;;;;;;20.38;12.07;;;2.20;99.90;;;;;;5109308;28;20047;-65
2022/03/01 04:15:42;;;;;;;23.02;12.85;;;2.20;99.90;;;;;;5111357;28;20078;-65
2022/03/01 04:18:08;;;;;;;23.45;12.68;;;2.20;99.90;;;;;;5111869;28;20038;-65
2022/03/01 04:20:34;;;;;;;24.80;12.00;;;2.20;99.90;;;;;;5111389;28;20512;-65
2022/03/01 04:22:59;;;;;;;25.23;11.63;;;2.20;99.90;;;;;;5113492;28;20031;-66
2022/03/01 04:25:25;;;;;;;20.95;11.77;;;2.20;99.90;;;;;;5113985;28;20110;-65
2022/03/01 04:27:50;;;;;;;21.05;12.05;;;2.20;99.90;;;;;;5114438;28;20044;-65
2022/03/01 04:30:17;;;;;;;24.95;12.95;;;2.20;99.90;;;;;;5114147;28;20036;-65
2022/03/01 04:32:45;;;;;;;21.17;12.45;;;2.20;99.90;;;;;;5113170;28;20044;-65
2022/03/01 04:35:11;;;;;;;29.10;11.85;;;2.20;99.90;;;;;;5114105;28;20039;-64
2022/03/01 04:37:38;;;;;;;21.95;11.95;;;2.20;99.90;;;;;;5114088;28;20606;-63
2022/03/01 04:40:06;;;;;;;23.70;12.32;;;2.20;99.90;;;;;;5113920;28;20071;-64
2022/03/01 04:42:32;;;;;;;25.02;12.68;;;2.20;99.90;;;;;;5113275;28;20365;-64
2022/03/01 04:44:58;;;;;;;23.15;12.57;;;2.20;99.90;;;;;;5112764;28;20028;-66
2022/03/01 04:47:24;;;;;;;22.35;12.02;;;2.20;99.90;;;;;;5114012;28;20054;-63
2022/03/01 04:49:50;;;;;;;22.63;12.75;;;2.20;99.90;;;;;;5114071;28;20040;-64
2022/03/01 04:52:15;;;;;;;23.17;13.25;;;2.20;99.90;;;;;;5113101;28;20514;-63
2022/03/01 04:54:41;;;;;;;21.52;12.20;;;2.30;99.90;;;;;;5113649;28;20120;-64
2022/03/01 04:57:06;;;;;;;23.42;12.90;;;2.30;99.90;;;;;;5113976;28;20059;-64
2022/03/01 04:59:32;;;;;;;21.85;12.63;;;2.30;99.90;;;;;;5113918;28;20035;-64
2022/03/01 05:01:58;;;;;;;25.70;13.38;;;2.30;99.90;;;;;;5112870;28;20360;-64
2022/03/01 05:04:23;;;;;;;21.88;12.07;;;2.30;99.90;;;;;;5113710;28;20441;-64
2022/03/01 05:06:49;;;;;;;26.52;13.95;;;2.30;99.90;;;;;;5113509;28;20090;-63
2022/03/01 05:09:15;;;;;;;25.95;11.88;;;2.20;99.90;;;;;;5113700;27;20068;-64
2022/03/01 05:11:40;;;;;;;24.88;12.70;;;2.20;99.90;;;;;;5111985;28;20043;-64
2022/03/01 05:14:06;;;;;;;24.30;12.98;;;2.20;99.90;;;;;;5113106;28;20051;-63
2022/03/01 05:16:31;;;;;;;26.58;12.75;;;2.20;99.90;;;;;;5113035;28;20117;-63
2022/03/01 05:18:57;;;;;;;20.88;11.90;;;2.10;99.90;;;;;;5115063;28;20043;-63
2022/03/01 05:21:22;;;;;;;25.42;12.90;;;2.10;99.90;;;;;;5114158;28;20051;-64
2022/03/01 05:23:48;;;;;;;23.88;12.82;;;2.10;99.90;;;;;;5113045;28;20032;-64
2022/03/01 05:26:14;;;;;;;23.90;13.55;;;2.20;99.90;;;;;;5113528;28;20044;-64
2022/03/01 05:28:39;;;;;;;22.13;12.95;;;2.20;99.90;;;;;;5114216;28;20046;-64
2022/03/01 05:31:05;;;;;;;28.15;13.82;;;2.20;99.90;;;;;;5115314;28;20127;-64
2022/03/01 05:33:31;;;;;;;23.23;12.93;;;2.20;99.90;;;;;;5112961;28;20416;-63
2022/03/01 05:35:57;;;;;;;21.13;11.93;;;2.20;99.90;;;;;;5112998;28;20043;-64
2022/03/01 05:38:23;;;;;;;26.73;14.32;;;2.10;99.90;;;;;;5113114;28;20043;-64
2022/03/01 05:40:48;;;;;;;26.40;13.75;;;2.10;99.90;;;;;;5113032;28;20059;-63
2022/03/01 05:43:14;;;;;;;24.38;13.23;;;2.00;99.90;;;;;;5112495;28;20046;-64
2022/03/01 05:45:41;;;;;;;21.83;12.02;;;1.90;99.90;;;;;;5113200;28;20031;-64
2022/03/01 05:48:07;;;;;;;22.92;13.40;;;1.90;99.90;;;;;;5113136;28;20141;-65
2022/03/01 05:50:33;;;;;;;27.60;12.57;;;2.00;99.90;;;;;;5113177;27;20548;-63
2022/03/01 05:52:59;;;;;;;22.08;12.38;;;2.00;99.90;;;;;;5112219;28;20035;-63
2022/03/01 05:55:24;;;;;;;22.52;12.82;;;1.90;99.90;;;;;;5113091;28;20162;-64
2022/03/01 05:57:50;;;;;;;22.88;13.32;;;2.00;99.90;;;;;;5113240;28;20042;-63
2022/03/01 06:00:18;;;;;;;26.95;13.75;;;2.00;99.90;;;;;;5113026;28;20050;-63
2022/03/01 06:02:45;;;;;;;25.15;12.75;;;1.90;99.90;;;;;;5112036;28;20039;-64
2022/03/01 06:05:17;;;;;;;24.42;13.80;;;2.00;99.90;;;;;;5112778;28;20047;-64
2022/03/01 06:07:44;;;;;;;25.60;13.93;;;2.00;99.90;;;;;;5112863;28;20035;-63
2022/03/01 06:10:10;;;;;;;24.38;12.68;;;2.00;99.90;;;;;;5103285;28;20043;-64
2022/03/01 06:12:36;;;;;;;25.25;13.13;;;2.00;99.90;;;;;;5108177;28;20039;-63
2022/03/01 06:15:03;;;;;;;23.73;12.73;;;2.00;99.90;;;;;;5109498;28;20042;-64
2022/03/01 06:17:29;;;;;;;24.05;13.10;;;2.00;99.90;;;;;;5108649;28;20046;-64
2022/03/01 06:19:54;;;;;;;23.48;13.52;;;2.00;99.90;;;;;;5110457;28;20492;-63
2022/03/01 06:22:20;;;;;;;29.40;14.02;;;2.00;99.90;;;;;;5111746;28;20115;-64
2022/03/01 06:24:46;;;;;;;27.98;14.38;;;2.00;99.90;;;;;;5111325;28;20092;-62
2022/03/01 06:27:12;;;;;;;22.65;13.60;;;2.00;99.90;;;;;;5107997;28;20135;-62
2022/03/01 06:29:38;;;;;;;24.83;13.25;;;2.00;99.90;;;;;;5112033;28;20053;-64
2022/03/01 06:32:05;;;;;;;23.80;12.48;;;2.10;99.90;;;;;;5111307;28;20039;-64
2022/03/01 06:34:31;;;;;;;28.30;13.95;;;2.10;99.90;;;;;;5112232;28;20050;-63
2022/03/01 06:36:57;;;;;;;25.83;13.70;;;2.10;99.90;;;;;;5112286;28;20051;-64
2022/03/01 06:39:23;;;;;;;28.63;13.27;;;2.00;99.90;;;;;;5112329;28;20407;-63
2022/03/01 06:41:50;;;;;;;27.50;13.57;;;2.00;99.90;;;;;;5111463;28;20027;-65
2022/03/01 06:44:16;;;;;;;27.30;13.98;;;2.00;99.90;;;;;;5113418;28;20055;-65
2022/03/01 06:46:42;;;;;;;25.98;13.95;;;2.00;99.90;;;;;;5112704;28;20043;-64
2022/03/01 06:49:07;;;;;;;27.58;14.07;;;1.90;99.90;;;;;;5111929;28;20415;-65
2022/03/01 06:51:33;;;;;;;24.65;14.10;;;1.90;99.90;;;;;;5111925;27;20118;-65
2022/03/01 06:53:58;;;;;;;28.42;14.23;;;1.90;99.90;;;;;;5111569;28;20232;-65
2022/03/01 06:56:24;;;;;;;28.42;14.05;;;2.10;99.90;;;;;;5111713;28;20040;-65
2022/03/01 06:58:49;;;;;;;26.92;14.48;;;2.10;99.90;;;;;;5105846;28;20032;-64
2022/03/01 07:01:15;;;;;;;27.75;14.43;;;2.20;99.90;;;;;;5088945;28;20499;-68
2022/03/01 07:03:42;;;;;;;30.33;14.23;;;2.20;99.90;;;;;;5090551;28;20162;-68
2022/03/01 07:06:08;;;;;;;25.25;13.73;;;2.30;99.90;;;;;;5091133;28;20071;-66
2022/03/01 07:08:34;;;;;;;28.70;14.13;;;2.30;99.90;;;;;;5091332;28;20032;-63
2022/03/01 07:10:59;;;;;;;23.73;14.05;;;2.40;99.90;;;;;;5091227;28;20051;-65
2022/03/01 07:13:25;;;;;;;33.10;14.43;;;2.40;99.90;;;;;;5090421;28;20044;-63
2022/03/01 07:15:50;;;;;;;27.60;14.55;;;2.50;99.90;;;;;;5090920;28;20447;-65
2022/03/01 07:18:16;;;;;;;28.13;14.07;;;2.50;99.90;;;;;;5090869;28;20076;-63
2022/03/01 07:20:43;;;;;;;28.48;14.27;;;2.50;99.90;;;;;;5078024;28;20059;-63
2022/03/01 07:23:09;;;;;;;22.35;12.40;;;2.50;99.90;;;;;;5100089;28;20065;-63
2022/03/01 07:25:35;;;;;;;28.65;13.38;;;2.60;99.90;;;;;;5110971;28;20521;-63
2022/03/01 07:28:01;;;;;;;28.27;13.98;;;2.70;99.90;;;;;;5110704;28;20042;-64
2022/03/01 07:30:27;;;;;;;26.55;14.05;;;2.60;99.90;;;;;;5110723;28;20035;-63
2022/03/01 07:32:59;;;;;;;26.70;13.95;;;2.70;99.90;;;;;;5109530;28;20046;-64
2022/03/01 07:35:26;;;;;;;28.08;14.05;;;2.70;99.90;;;;;;5110276;28;20049;-63
2022/03/01 07:37:52;;;;;;;26.23;13.75;;;2.90;99.90;;;;;;5110257;28;20119;-63
2022/03/01 07:40:20;;;;;;;27.67;14.73;;;2.80;99.90;;;;;;5111134;28;20035;-64
2022/03/01 07:42:45;;;;;;;28.23;14.93;;;2.80;99.90;;;;;;5110082;28;20027;-65
2022/03/01 07:45:11;;;;;;;26.83;14.35;;;2.90;99.90;;;;;;5110647;28;20096;-64
2022/03/01 07:47:38;;;;;;;25.45;14.82;;;2.90;99.90;;;;;;5110444;28;20127;-64
2022/03/01 07:50:04;;;;;;;26.80;13.57;;;2.90;99.90;;;;;;5110927;28;20040;-66
2022/03/01 07:52:30;;;;;;;29.00;14.90;;;3.00;99.90;;;;;;5110201;28;20035;-64
2022/03/01 07:54:55;;;;;;;23.05;14.20;;;3.00;99.90;;;;;;5111019;28;20100;-64
2022/03/01 07:57:21;;;;;;;33.30;14.80;;;3.00;99.90;;;;;;5115824;28;20046;-64
2022/03/01 07:59:47;;;;;;;29.15;14.27;;;3.10;99.90;;;;;;5112478;28;20479;-65
2022/03/01 08:02:12;;;;;;;23.88;13.95;;;3.10;99.90;;;;;;5109999;28;20685;-65
2022/03/01 08:04:41;;;;;;;23.60;12.23;;;3.10;99.90;;;;;;5111708;28;20036;-64
2022/03/01 08:07:10;;;;;;;25.65;14.43;;;3.10;99.90;;;;;;5112734;28;20101;-64
2022/03/01 08:09:37;;;;;;;23.33;13.40;;;3.10;99.90;;;;;;5111772;28;20208;-64
2022/03/01 08:12:04;;;;;;;26.92;14.18;;;3.20;99.90;;;;;;5109940;28;20096;-64
2022/03/01 08:14:31;;;;;;;27.02;13.93;;;3.30;99.90;;;;;;5110553;28;20396;-64
2022/03/01 08:16:57;;;;;;;29.02;15.25;;;3.30;99.90;;;;;;5110569;28;20462;-64
2022/03/01 08:19:23;;;;;;;27.02;14.23;;;3.40;99.90;;;;;;5110293;28;20499;-64
2022/03/01 08:21:49;;;;;;;29.25;13.30;;;3.40;99.90;;;;;;5109682;28;20113;-64
2022/03/01 08:24:15;;;;;;;25.75;13.43;;;3.50;99.90;;;;;;5110557;28;20034;-64
2022/03/01 08:26:41;;;;;;;24.95;14.95;;;3.50;99.90;;;;;;5110186;28;20035;-64
2022/03/01 08:29:06;;;;;;;28.45;14.65;;;3.60;99.90;;;;;;5110246;28;20417;-65
2022/03/01 08:31:32;;;;;;;25.48;13.68;;;3.60;99.90;;;;;;5110226;28;20046;-63
2022/03/01 08:33:59;;;;;;;27.50;14.50;;;3.60;99.90;;;;;;5109813;28;20050;-64
2022/03/01 08:36:25;;;;;;;27.90;14.18;;;3.60;99.90;;;;;;5110467;28;20047;-66
2022/03/01 08:38:51;;;;;;;27.80;14.90;;;3.70;99.90;;;;;;5110517;28;20415;-65
2022/03/01 08:41:17;;;;;;;20.88;13.52;;;3.70;99.90;;;;;;5110460;28;20038;-65
2022/03/01 08:43:46;;;;;;;24.63;14.80;;;3.80;99.90;;;;;;5109539;28;20516;-65
2022/03/01 08:46:13;;;;;;;24.85;13.38;;;3.90;99.90;;;;;;5110449;28;20135;-65
2022/03/01 08:48:39;;;;;;;28.60;14.75;;;3.90;99.90;;;;;;5110513;28;20035;-65
2022/03/01 08:51:05;;;;;;;26.02;14.10;;;4.00;99.90;;;;;;5110580;28;20112;-64
2022/03/01 08:53:32;;;;;;;22.52;12.30;;;4.10;99.90;;;;;;5109734;28;20487;-65
2022/03/01 08:55:58;;;;;;;23.58;12.57;;;4.10;99.90;;;;;;5110381;28;20472;-65
2022/03/01 08:58:24;;;;;;;24.05;12.20;;;4.30;99.90;;;;;;5110343;28;20036;-65
2022/03/01 09:00:49;;;;;;;21.63;11.68;;;4.40;99.90;;;;;;5110711;28;20042;-65
2022/03/01 09:03:15;;;;;;;20.95;11.10;;;4.50;99.90;;;;;;5109368;28;20523;-64
2022/03/01 09:05:41;;;;;;;20.50;11.52;;;4.60;99.90;;;;;;5110426;28;20036;-65
2022/03/01 09:08:06;;;;;;;22.98;12.05;;;4.70;99.90;;;;;;5116332;28;20052;-65
2022/03/01 09:10:32;;;;;;;21.33;11.15;;;4.80;99.90;;;;;;5116196;28;20043;-65
2022/03/01 09:12:58;;;;;;;24.40;12.05;;;5.00;99.90;;;;;;5113248;28;20635;-65
2022/03/01 09:15:30;;;;;;;23.85;11.55;;;5.10;99.90;;;;;;5114056;28;20036;-65
2022/03/01 09:17:56;;;;;;;20.67;11.53;;;5.10;99.90;;;;;;5114424;28;20050;-65
2022/03/01 09:20:23;;;;;;;18.55;11.15;;;5.20;99.90;;;;;;5114177;28;20399;-64
2022/03/01 09:22:49;;;;;;;22.13;12.73;;;5.30;99.90;;;;;;5113149;28;20044;-65
2022/03/01 09:25:15;;;;;;;21.90;12.02;;;5.30;99.90;;;;;;5113974;28;20039;-65
2022/03/01 09:27:40;;;;;;;24.77;12.95;;;5.30;99.90;;;;;;5116242;28;20579;-64
2022/03/01 09:30:07;;;;;;;23.30;11.20;;;5.30;99.90;;;;;;5115911;28;20047;-65
2022/03/01 09:32:33;;;;;;;19.45;12.02;;;5.40;99.90;;;;;;5112511;28;20049;-64
2022/03/01 09:34:59;;;;;;;21.60;11.88;;;5.50;99.90;;;;;;5113593;28;20114;-67
2022/03/01 09:37:25;;;;;;;21.15;11.57;;;5.60;99.90;;;;;;5113357;28;20042;-65
2022/03/01 09:39:51;;;;;;;21.63;11.23;;;5.70;99.90;;;;;;5080932;28;20384;-65
2022/03/01 09:42:17;;;;;;;23.48;12.18;;;5.80;99.90;;;;;;5103493;28;20450;-65
2022/03/01 09:44:42;;;;;;;21.65;11.32;;;5.80;99.90;;;;;;5113429;28;20585;-64
2022/03/01 09:47:08;;;;;;;20.73;11.68;;;5.90;99.90;;;;;;5113494;28;20118;-65
2022/03/01 09:49:34;;;;;;;24.27;12.73;;;5.90;99.90;;;;;;5113517;28;20039;-64
2022/03/01 09:51:59;;;;;;;22.70;11.55;;;5.90;99.90;;;;;;5112582;28;20496;-65
2022/03/01 09:54:25;;;;;;;18.63;11.32;;;5.90;99.90;;;;;;5113176;28;20036;-65
2022/03/01 09:56:51;;;;;;;22.60;12.18;;;6.00;99.90;;;;;;5113054;28;20412;-65
2022/03/01 09:59:17;;;;;;;21.08;11.43;;;6.10;99.90;;;;;;5113320;28;20522;-65
2022/03/01 10:01:53;;;;;;;19.60;11.85;;;6.10;99.90;;;;;;5112517;28;20047;-64
2022/03/01 10:04:19;;;;;;;20.88;11.18;;;6.10;99.90;;;;;;5113181;27;20035;-65
2022/03/01 10:06:47;;;;;;;23.42;12.57;;;6.30;99.90;;;;;;5112827;28;20114;-65
2022/03/01 10:09:18;;;;;;;25.67;13.25;;;6.30;99.90;;;;;;5112809;28;20047;-66
2022/03/01 10:11:44;;;;;;;22.98;12.05;;;6.30;99.90;;;;;;5112052;28;20506;-65
2022/03/01 10:14:10;;;;;;;18.02;11.27;;;6.30;99.90;;;;;;5112870;27;20070;-65
2022/03/01 10:16:38;;;;;;;21.70;12.48;;;6.30;99.90;;;;;;5112703;27;20055;-65
2022/03/01 10:19:09;;;;;;;24.02;13.88;;;6.40;99.90;;;;;;5115565;28;20039;-65
2022/03/01 10:21:35;;;;;;;25.13;11.85;;;6.40;99.90;;;;;;5116569;28;20043;-65
2022/03/01 10:24:01;;;;;;;23.13;13.40;;;6.40;99.90;;;;;;5112455;28;20035;-65
2022/03/01 10:26:28;;;;;;;23.20;12.57;;;6.50;99.90;;;;;;5112715;28;20062;-65
2022/03/01 10:28:56;;;;;;;17.60;11.98;;;6.50;99.90;;;;;;5112485;28;20039;-65
2022/03/01 10:31:29;;;;;;;19.55;13.00;;;6.50;99.90;;;;;;5112404;28;20169;-64
2022/03/01 10:34:02;;;;;;;19.92;12.48;;;6.50;99.90;;;;;;5111862;28;20043;-65
2022/03/01 10:36:32;;;;;;;20.80;13.02;;;6.60;99.90;;;;;;5112343;28;20404;-66
2022/03/01 10:39:08;;;;;;;21.25;10.88;;;6.60;99.90;;;;;;5112891;28;20408;-65
2022/03/01 10:41:37;;;;;;;20.88;12.68;;;6.70;99.90;;;;;;5112005;28;20495;-65
2022/03/01 10:44:04;;;;;;;21.63;12.68;;;6.80;99.90;;;;;;5112027;28;20040;-64
2022/03/01 10:46:38;;;;;;;19.63;11.40;;;6.80;99.90;;;;;;5113260;28;20585;-65
2022/03/01 10:49:12;;;;;;;19.38;11.40;;;6.80;99.90;;;;;;5115251;28;20043;-65
2022/03/01 10:51:59;;;;;;;23.13;12.30;;;7.00;99.90;;;;;;5113187;28;20047;-67
2022/03/01 10:54:38;;;;;;;19.25;12.13;;;7.10;99.90;;;;;;5112005;28;20035;-65
2022/03/01 10:57:06;;;;;;;17.75;11.23;;;7.10;99.90;;;;;;5111676;28;20039;-65
2022/03/01 10:59:33;;;;;;;21.70;12.05;;;7.10;99.90;;;;;;5111863;28;20093;-66
2022/03/01 11:02:00;;;;;;;21.85;12.25;;;7.20;99.90;;;;;;5111074;28;20036;-65
2022/03/01 11:04:26;;;;;;;19.92;12.55;;;7.30;99.90;;;;;;5110238;28;20036;-65
2022/03/01 11:06:54;;;;;;;23.95;12.48;;;7.30;99.90;;;;;;5111601;28;20441;-65
2022/03/01 11:09:23;;;;;;;24.23;11.90;;;7.40;99.90;;;;;;5111390;28;20039;-65
2022/03/01 11:11:51;;;;;;;21.58;13.00;;;7.40;99.90;;;;;;5110487;28;20039;-64
2022/03/01 11:14:26;;;;;;;19.52;11.48;;;7.50;99.90;;;;;;5111591;28;20040;-64
2022/03/01 11:17:16;;;;;;;20.73;12.13;;;7.50;99.90;;;;;;5111175;28;20075;-65
2022/03/01 11:19:54;;;;;;;20.80;12.02;;;7.60;99.90;;;;;;5111209;28;20122;-65
2022/03/01 11:22:41;;;;;;;24.77;13.05;;;7.60;99.90;;;;;;5110416;28;20050;-64
2022/03/01 11:25:17;;;;;;;19.48;11.35;;;7.60;99.90;;;;;;5111359;28;20430;-65
2022/03/01 11:27:45;;;;;;;24.58;13.05;;;7.70;99.90;;;;;;5111264;28;20512;-65
2022/03/01 11:30:12;;;;;;;23.50;11.88;;;7.80;99.90;;;;;;5112268;28;20130;-66
2022/03/01 11:32:44;;;;;;;21.42;12.02;;;7.80;99.90;;;;;;5112527;28;20059;-65
2022/03/01 11:35:22;;;;;;;18.90;11.90;;;7.70;99.90;;;;;;5111009;28;20035;-65
2022/03/01 11:38:12;;;;;;;20.52;11.57;;;7.80;97.40;;;;;;5110767;28;20071;-65
2022/03/01 11:40:52;;;;;;;25.00;13.32;;;7.80;99.20;;;;;;5110806;28;20325;-65
2022/03/01 11:43:22;;;;;;;24.52;12.65;;;7.80;99.20;;;;;;5109967;28;20131;-65
2022/03/01 11:45:49;;;;;;;25.30;14.15;;;7.80;99.90;;;;;;5110824;28;20074;-66
2022/03/01 11:48:18;;;;;;;22.20;13.50;;;7.90;99.90;;;;;;5110532;28;20035;-66
2022/03/01 11:51:03;;;;;;;23.95;12.73;;;7.90;99.90;;;;;;5110542;28;20039;-65
2022/03/01 11:53:39;;;;;;;25.40;13.20;;;7.90;99.90;;;;;;5109726;28;20088;-65
2022/03/01 11:56:06;;;;;;;25.98;13.00;;;8.00;99.90;;;;;;5110584;28;20569;-66
2022/03/01 11:58:34;;;;;;;22.77;12.93;;;8.00;99.90;;;;;;5110457;28;20042;-66
2022/03/01 12:01:04;;;;;;;20.50;12.43;;;8.00;99.90;;;;;;5110394;28;20519;-66
2022/03/01 12:03:29;;;;;;;21.63;12.50;;;8.00;99.90;;;;;;5109561;28;20119;-65
2022/03/01 12:05:55;;;;;;;21.77;13.00;;;8.00;99.90;;;;;;5110232;28;20656;-66
2022/03/01 12:08:21;;;;;;;21.05;11.75;;;8.10;99.90;;;;;;5112525;28;20055;-65
2022/03/01 12:10:56;;;;;;;22.25;13.50;;;8.10;99.90;;;;;;5112522;28;20074;-66
2022/03/01 12:13:36;;;;;;;22.88;13.38;;;8.20;99.90;;;;;;5109640;28;20100;-65
2022/03/01 12:16:02;;;;;;;25.33;12.57;;;8.20;99.90;;;;;;5110422;28;20117;-65
2022/03/01 12:18:31;;;;;;;21.38;12.60;;;8.20;99.90;;;;;;5110732;28;20145;-65
2022/03/01 12:21:03;;;;;;;22.77;12.88;;;8.30;99.90;;;;;;5110589;28;20110;-65
2022/03/01 12:23:31;;;;;;;26.88;13.45;;;8.30;99.90;;;;;;5078761;28;20435;-66
2022/03/01 12:25:59;;;;;;;23.55;12.18;;;8.30;99.90;;;;;;5069884;28;20105;-65
2022/03/01 12:28:29;;;;;;;23.83;12.48;;;8.30;99.90;;;;;;5069593;28;20039;-66
2022/03/01 12:30:58;;;;;;;23.23;12.43;;;8.30;99.90;;;;;;5069614;28;20326;-66
2022/03/01 12:33:23;;;;;;;23.75;13.18;;;8.40;99.90;;;;;;5068478;28;20043;-65
2022/03/01 12:36:03;;;;;;;23.30;12.95;;;8.40;99.90;;;;;;5069548;28;20040;-66